Time;durP1;ratioP1;P1;durP2;ratioP2;P2;SDS_P1;SDS_P2;PMS_P1;PMS_P2;Temp;Humidity;BMP_temperature;BMP_pressure;BME280_temperature;BME280_humidity;BME280_pressure;Samples;Min_cycle;Max_cycle;Signal;HPM_P1;HPM_P2
2022/01/02 00:00:44;;;;;;;3.50;1.50;;;;;;;5.09;75.69;101520.96;107246;1250;74394;-76
2022/01/02 00:03:19;;;;;;;2.40;1.50;;;;;;;5.03;75.52;101522.73;107238;1251;72904;-79
2022/01/02 00:05:52;;;;;;;2.40;1.40;;;;;;;5.00;74.41;101529.39;107293;1250;70076;-80
2022/01/02 00:08:21;;;;;;;4.90;1.60;;;;;;;5.01;73.50;101530.73;107224;1251;72343;-75
2022/01/02 00:10:58;;;;;;;1.70;1.20;;;;;;;4.96;74.04;101526.76;107175;1251;61134;-76
2022/01/02 00:13:34;;;;;;;5.10;1.50;;;;;;;4.94;73.62;101532.39;107176;1250;61525;-78
2022/01/02 00:16:07;;;;;;;3.00;1.40;;;;;;;4.84;73.33;101535.84;107241;1250;72868;-79
2022/01/02 00:18:39;;;;;;;1.20;0.80;;;;;;;4.79;73.77;101544.29;107306;1249;70611;-81
2022/01/02 00:21:10;;;;;;;2.60;1.20;;;;;;;4.73;73.50;101558.63;107267;1249;68702;-77
2022/01/02 00:23:58;;;;;;;2.10;1.20;;;;;;;4.70;74.38;101566.34;107282;1250;73939;-78
2022/01/02 00:26:35;;;;;;;3.00;1.20;;;;;;;4.70;74.74;101569.98;107065;1251;60470;-78
2022/01/02 00:29:06;;;;;;;3.90;1.40;;;;;;;4.66;74.91;101577.89;107247;1250;58954;-79
2022/01/02 00:31:35;;;;;;;2.50;1.30;;;;;;;4.62;75.07;101585.10;107275;1249;72190;-77
2022/01/02 00:34:06;;;;;;;3.90;1.40;;;;;;;4.56;74.52;101597.02;107387;1249;69053;-78
2022/01/02 00:36:36;;;;;;;2.60;1.50;;;;;;;4.48;75.32;101604.35;107251;1251;69796;-78
2022/01/02 00:39:06;;;;;;;2.90;1.50;;;;;;;4.40;75.76;101609.11;107152;1250;73852;-78
2022/01/02 00:42:11;;;;;;;3.70;1.50;;;;;;;4.31;74.19;101609.73;107076;1251;60976;-82
2022/01/02 00:45:19;;;;;;;2.70;1.30;;;;;;;4.26;75.74;101618.85;107211;1250;59828;-77
2022/01/02 00:48:10;;;;;;;3.30;1.60;;;;;;;4.17;75.08;101625.00;107189;1250;70937;-78
2022/01/02 00:50:49;;;;;;;2.60;1.50;;;;;;;4.11;77.04;101620.69;107073;1251;72642;-81
2022/01/02 00:53:20;;;;;;;2.40;1.40;;;;;;;4.03;77.13;101624.23;107233;1250;71347;-77
2022/01/02 00:55:57;;;;;;;2.60;1.60;;;;;;;3.97;77.88;101624.05;107293;1250;72476;-77
2022/01/02 00:58:52;;;;;;;2.80;1.30;;;;;;;3.88;75.74;101624.33;107337;1249;60883;-79
2022/01/02 01:01:27;;;;;;;2.90;1.80;;;;;;;3.84;77.02;101619.81;107236;1250;58937;-80
2022/01/02 01:03:57;;;;;;;4.30;1.70;;;;;;;3.76;77.68;101621.94;106831;1251;554212;-80
2022/01/02 01:06:31;;;;;;;3.00;1.70;;;;;;;3.65;77.71;101618.98;107287;1250;71089;-79
2022/01/02 01:09:05;;;;;;;5.00;2.00;;;;;;;3.60;79.60;101619.13;107254;1251;70123;-80
2022/01/02 01:11:34;;;;;;;2.70;1.60;;;;;;;3.52;78.39;101620.39;107056;1252;72018;-77
2022/01/02 01:14:03;;;;;;;3.90;1.90;;;;;;;3.46;77.17;101625.39;107235;1249;60774;-79
2022/01/02 01:16:32;;;;;;;2.50;1.50;;;;;;;3.45;78.06;101628.36;107205;1251;60534;-82
2022/01/02 01:19:02;;;;;;;4.10;1.70;;;;;;;3.37;77.74;101635.63;107060;1251;74063;-82
2022/01/02 01:21:31;;;;;;;3.00;1.60;;;;;;;3.33;78.29;101638.67;107237;1250;71138;-81
2022/01/02 01:24:00;;;;;;;4.10;1.90;;;;;;;3.29;78.32;101639.63;107493;1249;69678;-77
2022/01/02 01:26:29;;;;;;;3.40;2.00;;;;;;;3.25;77.83;101643.19;107183;1251;74504;-80
2022/01/02 01:28:58;;;;;;;3.90;2.20;;;;;;;3.22;79.54;101646.02;107136;1250;61808;-79
2022/01/02 01:31:27;;;;;;;3.40;1.60;;;;;;;3.18;78.93;101651.48;107193;1250;60800;-77
2022/01/02 01:33:57;;;;;;;4.00;1.80;;;;;;;3.16;79.05;101650.81;107198;1250;74695;-75
2022/01/02 01:36:26;;;;;;;2.70;1.90;;;;;;;3.18;79.69;101649.24;107238;1249;73234;-77
2022/01/02 01:38:55;;;;;;;3.20;2.00;;;;;;;3.19;78.29;101648.68;107143;1251;70201;-78
2022/01/02 01:41:35;;;;;;;3.70;2.00;;;;;;;3.21;77.77;101647.44;107248;1251;71644;-77
2022/01/02 01:44:21;;;;;;;2.60;1.80;;;;;;;3.28;77.43;101650.52;107170;1249;60572;-80
2022/01/02 01:46:54;;;;;;;3.50;1.40;;;;;;;3.33;77.61;101645.02;107100;1251;60930;-78
2022/01/02 01:49:31;;;;;;;2.70;1.70;;;;;;;3.41;75.94;101644.11;107240;1250;71088;-80
2022/01/02 01:52:01;;;;;;;2.70;1.80;;;;;;;3.49;77.35;101650.45;107227;1250;71499;-82
2022/01/02 01:54:31;;;;;;;3.10;1.80;;;;;;;3.51;76.73;101659.20;107165;1249;70115;-79
2022/01/02 01:57:02;;;;;;;2.60;1.50;;;;;;;3.47;75.29;101661.85;107020;1250;73497;-79
2022/01/02 01:59:32;;;;;;;2.20;1.50;;;;;;;3.48;76.97;101658.25;106768;1253;61907;-80
2022/01/02 02:02:02;;;;;;;2.80;1.70;;;;;;;3.50;76.99;101659.38;107183;1251;61324;-79
2022/01/02 02:04:31;;;;;;;2.90;1.50;;;;;;;3.53;76.14;101661.54;107059;1251;72148;-77
2022/01/02 02:07:00;;;;;;;4.40;1.90;;;;;;;3.50;76.26;101669.05;108304;1253;70366;-78
2022/01/02 02:09:41;;;;;;;3.30;2.10;;;;;;;3.48;76.61;101662.89;106939;1250;69790;-79
2022/01/02 02:12:11;;;;;;;5.10;1.90;;;;;;;3.48;76.31;101668.76;107484;1250;75037;-76
2022/01/02 02:14:41;;;;;;;6.90;1.90;;;;;;;3.46;77.43;101676.21;107542;1249;61457;-78
2022/01/02 02:17:11;;;;;;;3.60;2.00;;;;;;;3.43;77.68;101680.08;107046;1249;60001;-79
2022/01/02 02:19:40;;;;;;;3.40;1.90;;;;;;;3.38;78.05;101686.23;107046;1250;71249;-80
2022/01/02 02:22:09;;;;;;;5.40;2.10;;;;;;;3.28;77.70;101687.02;107247;1251;70355;-77
2022/01/02 02:24:41;;;;;;;3.30;1.50;;;;;;;3.25;78.11;101693.46;107090;1250;68811;-76
2022/01/02 02:27:10;;;;;;;4.30;1.80;;;;;;;3.22;78.10;101689.41;107152;1251;72989;-76
2022/01/02 02:29:39;;;;;;;3.60;2.10;;;;;;;3.18;77.33;101696.58;107085;1251;62459;-77
2022/01/02 02:32:08;;;;;;;3.10;1.70;;;;;;;3.10;76.06;101696.09;107046;1252;59169;-77
2022/01/02 02:34:39;;;;;;;4.80;1.90;;;;;;;3.06;77.16;101697.73;106923;1250;72840;-76
2022/01/02 02:37:08;;;;;;;3.00;1.80;;;;;;;3.05;78.00;101698.27;106932;1250;73076;-78
2022/01/02 02:39:37;;;;;;;3.00;1.90;;;;;;;3.02;78.80;101694.41;107109;1249;70520;-76
2022/01/02 02:42:15;;;;;;;3.90;1.90;;;;;;;2.98;79.01;101695.71;107070;1251;74196;-77
2022/01/02 02:44:44;;;;;;;3.10;1.80;;;;;;;2.92;79.04;101694.98;107003;1251;61080;-76
2022/01/02 02:50:00;;;;;;;3.50;1.60;;;;;;;2.81;80.15;101701.80;106985;1251;72181;-80
2022/01/02 02:52:39;;;;;;;5.10;2.50;;;;;;;2.78;80.15;101700.50;107110;1250;71998;-79
2022/01/02 02:55:10;;;;;;;3.00;1.70;;;;;;;2.74;80.44;101700.26;106974;1249;70789;-80
2022/01/02 02:57:39;;;;;;;3.40;2.10;;;;;;;2.66;79.14;101702.67;106887;1252;73285;-78
2022/01/02 03:00:10;;;;;;;2.90;1.40;;;;;;;2.62;79.39;101703.63;107272;1249;60827;-77
2022/01/02 03:02:38;;;;;;;3.30;1.90;;;;;;;2.62;79.55;101709.65;107230;1250;62854;-77
2022/01/02 03:05:08;;;;;;;2.90;1.70;;;;;;;2.62;79.81;101717.91;107175;1249;75208;-78
2022/01/02 03:07:37;;;;;;;3.50;1.90;;;;;;;2.64;80.16;101722.34;107007;1250;71371;-77
2022/01/02 03:10:10;;;;;;;3.10;1.40;;;;;;;2.64;80.17;101716.82;107291;1249;68213;-77
2022/01/02 03:12:39;;;;;;;3.40;1.90;;;;;;;2.67;79.72;101719.69;107142;1250;72496;-80
2022/01/02 03:15:08;;;;;;;3.30;1.60;;;;;;;2.70;79.08;101721.50;107171;1250;60157;-77
2022/01/02 03:17:37;;;;;;;4.60;1.80;;;;;;;2.71;77.81;101721.98;107217;1251;60557;-78
2022/01/02 03:20:06;;;;;;;2.80;1.40;;;;;;;2.72;77.85;101719.57;107106;1250;70899;-76
2022/01/02 03:22:35;;;;;;;1.90;1.60;;;;;;;2.74;76.63;101716.77;107021;1250;72603;-79
2022/01/02 03:25:05;;;;;;;2.40;1.30;;;;;;;2.75;77.17;101723.45;107314;1251;68385;-79
2022/01/02 03:27:34;;;;;;;3.70;1.70;;;;;;;2.76;76.57;101729.27;107164;1251;70287;-80
2022/01/02 03:30:05;;;;;;;3.00;1.40;;;;;;;2.71;76.39;101723.20;107363;1249;60632;-81
2022/01/02 03:32:34;;;;;;;2.40;1.10;;;;;;;2.69;77.13;101726.36;107034;1249;62730;-79
2022/01/02 03:35:03;;;;;;;2.90;1.40;;;;;;;2.71;76.06;101720.98;107302;1250;73984;-79
2022/01/02 03:37:33;;;;;;;2.30;1.50;;;;;;;2.68;75.72;101732.39;107358;1249;73289;-77
2022/01/02 03:40:06;;;;;;;2.60;1.30;;;;;;;2.66;75.34;101731.39;107230;1251;71479;-78
2022/01/02 03:42:37;;;;;;;2.20;1.40;;;;;;;2.66;75.92;101732.78;107200;1251;74726;-80
2022/01/02 03:45:07;;;;;;;2.50;1.50;;;;;;;2.68;75.74;101729.99;107183;1251;60447;-79
2022/01/02 03:47:37;;;;;;;1.50;1.00;;;;;;;2.60;74.46;101728.95;107281;1250;60723;-79
2022/01/02 03:50:08;;;;;;;1.80;1.10;;;;;;;2.62;75.47;101725.63;107240;1249;70950;-80
2022/01/02 03:52:37;;;;;;;2.20;1.40;;;;;;;2.63;75.85;101725.47;107178;1250;71733;-80
2022/01/02 03:55:08;;;;;;;2.20;1.50;;;;;;;2.63;75.98;101724.06;107347;1249;71057;-78
2022/01/02 03:57:38;;;;;;;2.20;1.40;;;;;;;2.59;75.40;101724.70;107149;1249;73431;-81
2022/01/02 04:00:13;;;;;;;4.00;1.70;;;;;;;2.51;75.23;101718.00;107202;1250;59670;-77
2022/01/02 04:02:43;;;;;;;1.90;1.40;;;;;;;2.41;74.66;101722.16;107059;1252;60440;-78
2022/01/02 04:05:15;;;;;;;1.90;1.40;;;;;;;2.36;74.80;101721.59;107182;1251;72748;-81
2022/01/02 04:07:46;;;;;;;2.40;1.50;;;;;;;2.34;74.99;101726.62;107170;1250;71855;-78
2022/01/02 04:10:18;;;;;;;3.70;1.50;;;;;;;2.32;73.28;101730.63;107066;1252;68514;-77
2022/01/02 04:12:47;;;;;;;4.50;2.00;;;;;;;2.33;74.48;101737.14;107012;1251;72067;-78
2022/01/02 04:15:16;;;;;;;3.00;1.30;;;;;;;2.30;74.12;101738.58;107062;1251;59937;-80
2022/01/02 04:17:45;;;;;;;2.10;1.20;;;;;;;2.28;74.48;101743.77;107104;1252;59162;-80
2022/01/02 04:20:16;;;;;;;2.60;1.40;;;;;;;2.26;74.98;101747.08;107129;1251;74567;-80
2022/01/02 04:22:45;;;;;;;2.20;1.20;;;;;;;2.24;75.65;101756.42;107170;1251;73824;-80
2022/01/02 04:25:14;;;;;;;2.70;1.00;;;;;;;2.21;74.62;101761.45;106993;1250;70112;-81
2022/01/02 04:27:43;;;;;;;2.00;1.10;;;;;;;2.21;74.66;101769.88;107167;1251;72778;-81
2022/01/02 04:30:13;;;;;;;2.20;1.20;;;;;;;2.24;75.85;101767.73;107197;1251;59273;-80
2022/01/02 04:32:42;;;;;;;3.00;1.40;;;;;;;2.28;75.24;101769.58;106938;1249;61391;-80
2022/01/02 04:35:11;;;;;;;2.40;1.30;;;;;;;2.30;74.66;101772.44;107223;1250;74527;-80
2022/01/02 04:37:40;;;;;;;2.90;2.00;;;;;;;2.25;75.19;101777.52;107112;1252;71970;-81
2022/01/02 04:40:11;;;;;;;2.70;1.20;;;;;;;2.21;75.38;101788.77;107697;1249;71840;-80
2022/01/02 04:42:40;;;;;;;2.10;1.10;;;;;;;2.19;75.47;101786.40;108164;1249;73734;-77
2022/01/02 04:45:09;;;;;;;5.70;2.20;;;;;;;2.14;75.14;101788.92;107264;1250;63577;-79
2022/01/02 04:47:38;;;;;;;1.90;1.10;;;;;;;2.10;75.60;101797.95;107346;1250;60605;-78
2022/01/02 04:50:08;;;;;;;2.60;1.30;;;;;;;2.09;76.72;101803.27;107309;1250;73565;-79
2022/01/02 04:52:37;;;;;;;2.70;1.30;;;;;;;2.04;76.27;101806.66;107225;1251;70809;-78
2022/01/02 04:55:07;;;;;;;1.70;1.20;;;;;;;1.99;76.69;101809.48;107078;1252;67932;-80
2022/01/02 04:57:37;;;;;;;1.30;1.10;;;;;;;1.84;75.05;101811.84;107134;1249;73911;-80
2022/01/02 05:00:09;;;;;;;2.00;1.30;;;;;;;1.50;74.59;101820.02;106993;1250;59908;-79
2022/01/02 05:02:38;;;;;;;2.10;1.50;;;;;;;1.09;76.06;101819.31;107022;1252;60231;-79
2022/01/02 05:05:09;;;;;;;3.20;1.80;;;;;;;0.79;77.35;101823.17;107259;1249;72895;-81
2022/01/02 05:07:38;;;;;;;3.30;1.70;;;;;;;0.59;78.40;101820.36;107274;1249;72611;-80
2022/01/02 05:10:07;;;;;;;2.90;1.60;;;;;;;0.46;79.67;101823.79;107332;1249;69589;-80
2022/01/02 05:12:37;;;;;;;3.80;2.30;;;;;;;0.40;80.21;101832.10;107245;1249;72667;-82
2022/01/02 05:15:07;;;;;;;2.60;1.50;;;;;;;0.35;80.59;101839.00;107185;1250;59533;-83
2022/01/02 05:17:36;;;;;;;3.10;2.10;;;;;;;0.28;80.81;101842.85;107032;1251;59743;-83
2022/01/02 05:20:07;;;;;;;4.50;2.50;;;;;;;0.25;81.52;101845.97;107114;1251;72616;-82
2022/01/02 05:22:37;;;;;;;5.10;2.70;;;;;;;0.22;81.71;101839.33;107223;1251;71537;-80
2022/01/02 05:25:07;;;;;;;4.20;2.50;;;;;;;0.18;81.79;101840.23;107177;1252;71117;-79
2022/01/02 05:27:36;;;;;;;5.70;3.20;;;;;;;0.20;81.80;101835.92;107442;1251;72394;-82
2022/01/02 05:30:06;;;;;;;6.10;3.30;;;;;;;0.21;81.44;101838.48;107323;1251;59010;-84
2022/01/02 05:32:35;;;;;;;5.90;3.20;;;;;;;0.17;81.90;101843.48;107330;1249;60649;-84
2022/01/02 05:35:04;;;;;;;6.60;3.70;;;;;;;0.16;82.25;101849.84;107103;1250;73359;-81
2022/01/02 05:37:34;;;;;;;6.00;3.20;;;;;;;0.12;82.29;101857.43;107021;1250;72641;-81
2022/01/02 05:40:03;;;;;;;6.40;3.00;;;;;;;0.03;82.27;101864.04;107005;1250;71580;-82
2022/01/02 05:42:32;;;;;;;3.90;2.30;;;;;;;-0.03;82.91;101874.37;107028;1251;74435;-80
2022/01/02 05:45:02;;;;;;;3.50;2.30;;;;;;;-0.19;81.78;101877.27;106888;1250;63225;-82
2022/01/02 05:47:32;;;;;;;3.00;1.90;;;;;;;-0.30;82.64;101884.38;106935;1251;61821;-82
2022/01/02 05:50:00;;;;;;;5.90;2.80;;;;;;;-0.46;82.71;101888.63;106958;1250;73535;-80
2022/01/02 05:52:31;;;;;;;4.70;2.70;;;;;;;-0.62;83.19;101888.41;107085;1249;73400;-81
2022/01/02 05:55:01;;;;;;;5.60;2.90;;;;;;;-0.70;83.59;101887.09;107176;1249;69667;-75
2022/01/02 05:57:32;;;;;;;4.60;2.70;;;;;;;-0.68;83.77;101886.39;107127;1250;73272;-82
2022/01/02 06:00:05;;;;;;;6.20;3.30;;;;;;;-0.71;83.97;101884.70;107323;1249;60867;-82
2022/01/02 06:02:41;;;;;;;5.60;3.00;;;;;;;-0.76;84.02;101885.77;107213;1249;60079;-78
2022/01/02 06:05:11;;;;;;;6.80;3.10;;;;;;;-0.78;84.21;101893.83;107033;1249;72645;-80
2022/01/02 06:07:40;;;;;;;4.80;3.10;;;;;;;-0.82;84.29;101892.30;107092;1249;69681;-80
2022/01/02 06:10:10;;;;;;;5.70;3.60;;;;;;;-0.79;84.25;101897.77;107104;1250;68016;-79
2022/01/02 06:12:39;;;;;;;6.60;4.00;;;;;;;-0.81;83.88;101900.33;107123;1251;73204;-83
2022/01/02 06:15:08;;;;;;;6.80;4.40;;;;;;;-0.79;84.04;101904.77;107265;1249;61775;-80
2022/01/02 06:17:37;;;;;;;6.70;5.00;;;;;;;-0.78;83.99;101901.35;107109;1249;59485;-81
2022/01/02 06:20:07;;;;;;;10.20;5.30;;;;;;;-0.75;84.24;101904.73;107190;1250;72243;-80
2022/01/02 06:22:37;;;;;;;9.40;5.30;;;;;;;-0.70;84.08;101905.39;107152;1249;71414;-80
2022/01/02 06:25:07;;;;;;;7.10;4.40;;;;;;;-0.61;83.63;101908.92;107201;1249;71004;-80
2022/01/02 06:27:36;;;;;;;8.20;5.20;;;;;;;-0.55;83.28;101914.02;107006;1251;74490;-81
2022/01/02 06:30:06;;;;;;;9.50;5.90;;;;;;;-0.53;83.58;101910.58;106981;1250;60449;-80
2022/01/02 06:32:36;;;;;;;9.30;5.30;;;;;;;-0.52;83.89;101910.23;107152;1250;60674;-81
2022/01/02 06:35:06;;;;;;;8.80;5.20;;;;;;;-0.49;84.12;101914.15;107324;1249;73870;-80
2022/01/02 06:37:36;;;;;;;8.30;4.60;;;;;;;-0.47;83.84;101926.80;107300;1249;72929;-83
2022/01/02 06:40:06;;;;;;;7.30;3.60;;;;;;;-0.44;83.99;101925.41;107256;1250;70076;-78
2022/01/02 06:42:35;;;;;;;8.70;4.30;;;;;;;-0.39;83.53;101933.59;107342;1251;72298;-83
2022/01/02 06:45:05;;;;;;;6.20;3.70;;;;;;;-0.36;83.03;101936.47;107270;1250;59027;-78
2022/01/02 06:47:34;;;;;;;6.10;4.20;;;;;;;-0.33;82.78;101938.67;107135;1251;60109;-80
2022/01/02 06:50:06;;;;;;;10.90;5.90;;;;;;;-0.36;83.20;101939.89;107268;1248;74423;-79
2022/01/02 06:52:35;;;;;;;8.70;5.80;;;;;;;-0.41;83.69;101942.33;107148;1249;71705;-81
2022/01/02 06:55:06;;;;;;;7.40;4.40;;;;;;;-0.36;84.43;101946.41;107489;1250;71396;-81
2022/01/02 06:57:36;;;;;;;9.30;5.30;;;;;;;-0.35;85.20;101952.39;107564;1250;71523;-79
2022/01/02 07:00:07;;;;;;;11.90;5.40;;;;;;;-0.34;86.04;101952.73;107145;1250;60901;-78
2022/01/02 07:02:36;;;;;;;10.60;5.60;;;;;;;-0.32;86.38;101951.84;107250;1250;60236;-81
2022/01/02 07:05:06;;;;;;;11.20;6.50;;;;;;;-0.29;86.30;101950.63;107264;1249;74485;-78
2022/01/02 07:07:47;;;;;;;6.90;3.80;;;;;;;-0.25;86.60;101948.54;107273;1250;72402;-79
2022/01/02 07:10:16;;;;;;;10.50;5.70;;;;;;;-0.22;85.82;101948.69;106862;1250;70593;-78
2022/01/02 07:12:45;;;;;;;10.70;4.50;;;;;;;-0.15;85.39;101953.09;106975;1250;72693;-82
2022/01/02 07:15:15;;;;;;;13.20;7.00;;;;;;;-0.11;85.07;101959.39;107147;1249;60366;-84
2022/01/02 07:17:44;;;;;;;6.50;4.30;;;;;;;-0.06;83.85;101960.38;107348;1250;59748;-82
2022/01/02 07:20:13;;;;;;;9.30;5.00;;;;;;;0.07;83.77;101966.93;106976;1249;72618;-82
2022/01/02 07:22:42;;;;;;;7.40;4.70;;;;;;;0.22;83.69;101968.85;107287;1249;70932;-83
2022/01/02 07:25:11;;;;;;;8.80;5.40;;;;;;;0.37;85.76;101963.58;107121;1249;68762;-81
2022/01/02 07:27:40;;;;;;;8.10;4.40;;;;;;;0.46;85.94;101967.42;107121;1250;72063;-84
2022/01/02 07:30:10;;;;;;;9.00;4.80;;;;;;;0.59;85.60;101955.45;107169;1249;59865;-84
2022/01/02 07:32:39;;;;;;;8.80;4.60;;;;;;;0.71;85.24;101948.80;107256;1249;60591;-83
2022/01/02 07:35:09;;;;;;;7.30;4.80;;;;;;;0.83;85.50;101945.06;107237;1249;73777;-84
2022/01/02 07:37:37;;;;;;;7.30;4.80;;;;;;;0.95;85.67;101946.79;107256;1251;69658;-84
2022/01/02 07:40:07;;;;;;;7.50;4.70;;;;;;;1.06;85.08;101944.58;107190;1250;67970;-77
2022/01/02 07:42:36;;;;;;;7.10;4.20;;;;;;;1.15;85.05;101939.65;107145;1252;72011;-83
2022/01/02 07:45:13;;;;;;;6.60;3.70;;;;;;;1.34;85.17;101943.69;107265;1249;61600;-83
2022/01/02 07:47:42;;;;;;;6.50;4.00;;;;;;;1.48;85.13;101940.39;107205;1249;61776;-84
2022/01/02 07:50:12;;;;;;;7.30;4.10;;;;;;;1.64;85.65;101949.59;107319;1250;72276;-83
2022/01/02 07:52:43;;;;;;;4.10;2.30;;;;;;;1.79;81.98;101945.23;107215;1250;73216;-83
2022/01/02 07:55:11;;;;;;;5.50;3.20;;;;;;;1.93;79.68;101946.71;107334;1249;70352;-83
2022/01/02 07:57:40;;;;;;;6.20;3.20;;;;;;;2.06;81.92;101947.70;107264;1250;71396;-86
2022/01/02 08:00:10;;;;;;;6.60;3.60;;;;;;;2.17;82.51;101936.14;107373;1249;60244;-82
2022/01/02 08:02:42;;;;;;;;;;;;;;;2.29;79.61;101940.59;107191;1252;58912;-83
2022/01/02 08:05:11;;;;;;;7.60;4.40;;;;;;;2.31;79.45;101932.48;107266;1249;71748;-83
2022/01/02 08:07:40;;;;;;;4.80;3.30;;;;;;;2.46;79.28;101945.09;107359;1249;73233;-85
2022/01/02 08:10:10;;;;;;;7.10;3.60;;;;;;;2.51;78.61;101940.87;107237;1250;69465;-83
2022/01/02 08:12:39;;;;;;;5.00;2.70;;;;;;;2.62;78.88;101948.89;107264;1249;73999;-85
2022/01/02 08:15:09;;;;;;;1.60;1.40;;;;;;;2.74;79.14;101944.70;107320;1249;61858;-79
2022/01/02 08:17:38;;;;;;;4.20;2.60;;;;;;;2.87;75.86;101950.11;107310;1250;63148;-86
2022/01/02 08:20:07;;;;;;;4.40;2.60;;;;;;;2.91;75.97;101951.73;107387;1249;74096;-83
2022/01/02 08:22:36;;;;;;;5.30;3.20;;;;;;;3.03;76.71;101956.84;107353;1249;72854;-80
2022/01/02 08:25:06;;;;;;;6.00;2.80;;;;;;;3.14;75.43;101958.16;107362;1249;71040;-83
2022/01/02 08:27:35;;;;;;;4.80;2.10;;;;;;;3.23;76.71;101958.48;107302;1250;73566;-72
2022/01/02 08:30:05;;;;;;;3.60;2.30;;;;;;;3.32;74.21;101956.72;107266;1249;61366;-73
2022/01/02 08:32:34;;;;;;;3.90;2.20;;;;;;;3.34;73.02;101947.04;107293;1249;60200;-75
2022/01/02 08:35:04;;;;;;;3.40;2.20;;;;;;;3.33;73.04;101946.54;107219;1250;74369;-74
2022/01/02 08:37:34;;;;;;;3.00;2.20;;;;;;;3.36;73.28;101946.80;107179;1250;72134;-74
2022/01/02 08:40:03;;;;;;;4.60;2.20;;;;;;;3.32;72.51;101940.36;107198;1249;70997;-74
2022/01/02 08:42:32;;;;;;;3.80;2.10;;;;;;;3.29;72.75;101946.30;107046;1249;72106;-80
2022/01/02 08:45:02;;;;;;;3.50;2.40;;;;;;;3.31;71.89;101942.09;107083;1251;59771;-71
2022/01/02 08:47:31;;;;;;;3.80;2.40;;;;;;;3.33;71.66;101941.88;106839;1249;60550;-74
2022/01/02 08:50:00;;;;;;;4.10;2.40;;;;;;;3.38;71.35;101942.81;106623;1251;74506;-73
2022/01/02 08:52:28;;;;;;;3.70;2.50;;;;;;;3.42;71.99;101941.02;106962;1250;73908;-75
2022/01/02 08:54:58;;;;;;;5.40;2.40;;;;;;;3.51;72.01;101937.88;106964;1251;70629;-73
2022/01/02 08:57:26;;;;;;;3.70;2.40;;;;;;;3.51;71.28;101937.17;106623;1250;73217;-73
2022/01/02 08:59:55;;;;;;;3.90;2.70;;;;;;;3.56;70.84;101940.68;107029;1249;61870;-77
2022/01/02 09:02:24;;;;;;;4.50;2.40;;;;;;;3.51;68.80;101935.79;107076;1251;60681;-72
2022/01/02 09:04:53;;;;;;;4.30;2.30;;;;;;;3.55;70.01;101931.05;107020;1249;71677;-75
2022/01/02 09:07:22;;;;;;;4.10;2.50;;;;;;;3.58;71.28;101933.05;106993;1250;71353;-75
2022/01/02 09:09:52;;;;;;;3.70;1.90;;;;;;;3.64;71.98;101935.13;107023;1249;69688;-78
2022/01/02 09:12:21;;;;;;;4.40;2.50;;;;;;;3.74;71.50;101936.47;107168;1249;74365;-76
2022/01/02 09:14:50;;;;;;;5.10;2.70;;;;;;;3.76;69.50;101944.16;107050;1249;61498;-76
2022/01/02 09:17:19;;;;;;;4.70;2.40;;;;;;;3.81;70.63;101944.90;107093;1250;61053;-75
2022/01/02 09:19:49;;;;;;;4.30;2.30;;;;;;;3.74;69.23;101943.85;107082;1249;73026;-75
2022/01/02 09:22:18;;;;;;;4.30;2.20;;;;;;;3.79;70.45;101938.23;107162;1249;72111;-76
2022/01/02 09:24:46;;;;;;;2.70;1.90;;;;;;;3.82;69.41;101924.73;107074;1249;70383;-74
2022/01/02 09:27:15;;;;;;;3.20;2.10;;;;;;;3.83;69.67;101921.92;107131;1249;72479;-77
2022/01/02 09:29:44;;;;;;;5.20;2.00;;;;;;;3.86;69.78;101915.48;107025;1249;59016;-73
2022/01/02 09:32:13;;;;;;;4.60;2.00;;;;;;;3.92;70.57;101909.10;107095;1249;59721;-72
2022/01/02 09:34:42;;;;;;;3.50;2.10;;;;;;;3.95;68.78;101909.90;107034;1251;71089;-74
2022/01/02 09:37:12;;;;;;;3.70;1.90;;;;;;;3.98;68.44;101910.35;107064;1251;70605;-75
2022/01/02 09:39:41;;;;;;;4.40;2.00;;;;;;;3.99;68.43;101917.38;107162;1249;69546;-78
2022/01/02 09:42:12;;;;;;;2.90;1.80;;;;;;;3.99;66.79;101918.41;107133;1249;71086;-75
2022/01/02 09:44:41;;;;;;;4.70;2.00;;;;;;;4.04;68.32;101918.64;107148;1249;59035;-74
2022/01/02 09:47:12;;;;;;;4.00;1.80;;;;;;;4.07;68.36;101916.48;107212;1251;59059;-76
2022/01/02 09:49:41;;;;;;;3.00;1.80;;;;;;;4.12;67.81;101915.66;107130;1249;73013;-76
2022/01/02 09:52:09;;;;;;;2.30;1.50;;;;;;;4.14;68.21;101911.98;107066;1250;71679;-77
2022/01/02 09:54:39;;;;;;;4.00;2.30;;;;;;;4.08;65.31;101913.02;107194;1249;67920;-71
2022/01/02 09:57:09;;;;;;;3.40;2.10;;;;;;;4.07;65.88;101902.52;107240;1251;73179;-79
2022/01/02 09:59:38;;;;;;;3.90;2.00;;;;;;;4.09;66.70;101897.80;107300;1249;62345;-74
2022/01/02 10:02:07;;;;;;;2.90;1.70;;;;;;;4.12;67.54;101898.08;106982;1250;59657;-79
2022/01/02 10:04:42;;;;;;;2.80;1.90;;;;;;;4.17;66.24;101894.50;107137;1249;73640;-73
2022/01/02 10:07:31;;;;;;;4.10;2.20;;;;;;;4.15;65.45;101897.83;106977;1251;72874;-78
2022/01/02 10:10:13;;;;;;;3.60;2.30;;;;;;;4.17;64.45;101896.03;107324;1249;69284;-74
2022/01/02 10:12:42;;;;;;;4.90;2.70;;;;;;;4.25;65.40;101892.22;107221;1251;72959;-75
2022/01/02 10:15:23;;;;;;;4.10;2.30;;;;;;;4.28;65.29;101888.33;107122;1251;58963;-77
2022/01/02 10:18:10;;;;;;;3.50;1.80;;;;;;;4.21;64.05;101884.74;107132;1249;61249;-74
2022/01/02 10:20:45;;;;;;;3.30;2.10;;;;;;;4.24;65.37;101873.25;107242;1251;71717;-76
2022/01/02 10:23:23;;;;;;;3.90;1.70;;;;;;;4.28;65.04;101866.45;106943;1251;69724;-73
2022/01/02 10:26:03;;;;;;;3.70;2.30;;;;;;;4.23;64.67;101867.45;107291;1251;68166;-66
2022/01/02 10:28:41;;;;;;;3.60;2.30;;;;;;;4.21;65.21;101866.98;107127;1249;73105;-68
2022/01/02 10:31:14;;;;;;;3.50;2.10;;;;;;;4.34;65.61;101868.87;106997;1249;62767;-68
2022/01/02 10:33:57;;;;;;;4.50;2.30;;;;;;;4.48;65.86;101869.51;107079;1251;59038;-67
2022/01/02 10:36:38;;;;;;;3.50;2.20;;;;;;;4.71;67.10;101863.65;107074;1251;72389;-69
2022/01/02 10:39:20;;;;;;;2.60;1.60;;;;;;;4.94;66.06;101860.71;107012;1249;72238;-66
2022/01/02 10:41:51;;;;;;;6.30;2.60;;;;;;;5.11;64.37;101856.91;107106;1251;71165;-65
2022/01/02 10:44:33;;;;;;;3.40;2.50;;;;;;;5.27;65.73;101854.48;107033;1250;72702;-68
2022/01/02 10:47:25;;;;;;;5.10;3.00;;;;;;;5.38;63.65;101851.02;107004;1249;61913;-67
2022/01/02 10:50:05;;;;;;;5.40;2.90;;;;;;;5.54;64.96;101844.80;106915;1251;59329;-79
2022/01/02 10:52:41;;;;;;;6.30;2.40;;;;;;;5.85;67.54;101843.92;107187;1249;72287;-62
2022/01/02 10:55:24;;;;;;;6.10;2.70;;;;;;;6.09;66.14;101843.27;107235;1252;69062;-66
2022/01/02 10:57:57;;;;;;;4.10;2.90;;;;;;;6.20;62.11;101849.12;106849;1252;68306;-65
2022/01/02 11:00:29;;;;;;;7.10;3.10;;;;;;;6.30;64.28;101848.08;107136;1249;72939;-63
2022/01/02 11:02:59;;;;;;;5.30;2.50;;;;;;;6.40;62.61;101843.02;107155;1249;60623;-86
2022/01/02 11:05:31;;;;;;;4.30;2.90;;;;;;;6.43;61.38;101840.65;107303;1250;60299;-86
2022/01/02 11:08:03;;;;;;;4.80;2.70;;;;;;;6.40;64.53;101839.90;107334;1250;71090;-84
2022/01/02 11:10:35;;;;;;;4.10;2.50;;;;;;;6.46;62.10;101836.90;106988;1249;70334;-88
2022/01/02 11:13:06;;;;;;;4.80;2.60;;;;;;;6.42;61.83;101831.19;107325;1252;68757;-83
2022/01/02 11:15:34;;;;;;;5.20;2.80;;;;;;;6.39;59.83;101830.07;107488;1249;73992;-85
2022/01/02 11:18:04;;;;;;;6.10;3.50;;;;;;;6.59;63.58;101833.49;107622;1249;60425;-89
2022/01/02 11:20:36;;;;;;;4.20;2.70;;;;;;;6.83;63.94;101820.09;107933;1249;59997;-93
2022/01/02 11:23:16;;;;;;;5.30;3.00;;;;;;;7.06;63.98;101820.91;107856;1251;70931;-88
2022/01/02 11:26:25;;;;;;;5.20;3.30;;;;;;;7.03;60.81;101814.64;107209;1249;70676;-82
2022/01/02 11:29:15;;;;;;;8.20;4.80;;;;;;;7.24;62.32;101803.41;107303;1249;69207;-79
2022/01/02 11:31:46;;;;;;;5.80;3.40;;;;;;;7.38;62.71;101794.48;107028;1249;73853;-82
2022/01/02 11:34:25;;;;;;;5.80;3.80;;;;;;;7.70;64.90;101788.27;107309;1249;60114;-78
2022/01/02 11:37:13;;;;;;;4.50;3.10;;;;;;;8.21;66.11;101791.90;107768;1251;60715;-87
2022/01/02 11:40:04;;;;;;;5.40;3.20;;;;;;;8.36;64.41;101785.02;107166;1250;73355;-85
2022/01/02 11:42:37;;;;;;;5.60;2.90;;;;;;;8.71;62.78;101787.90;107004;1250;72381;-85
2022/01/02 11:45:22;;;;;;;4.80;3.20;;;;;;;8.86;60.57;101780.08;107255;1249;70361;-88
2022/01/02 11:47:51;;;;;;;5.80;3.40;;;;;;;8.81;59.98;101776.14;107103;1250;75215;-82